Time;durP1;ratioP1;P1;durP2;ratioP2;P2;SDS_P1;SDS_P2;PMS_P1;PMS_P2;Temp;Humidity;BMP_temperature;BMP_pressure;BME280_temperature;BME280_humidity;BME280_pressure;Samples;Min_cycle;Max_cycle;Signal;HPM_P1;HPM_P2
2021/11/23 00:00:11;;;;;;;8.13;3.37;;;;;;;1.04;99.37;101536.47;4999378;58;1135214;-85
2021/11/23 00:05:21;;;;;;;9.03;4.20;;;;;;;1.04;99.16;101546.88;4999404;58;1132791;-86
2021/11/23 00:10:26;;;;;;;9.83;3.40;;;;;;;1.00;99.03;101533.51;4999374;58;1132774;-86
2021/11/23 00:15:36;;;;;;;9.47;3.53;;;;;;;0.98;99.04;101534.84;5018434;58;1132581;-86
2021/11/23 00:20:45;;;;;;;8.60;3.50;;;;;;;0.94;98.77;101540.14;5142562;57;1130860;-85
2021/11/23 00:25:50;;;;;;;9.57;5.00;;;;;;;0.92;98.60;101545.82;5138862;57;1134764;-86
2021/11/23 00:30:56;;;;;;;8.73;4.43;;;;;;;0.89;98.41;101538.95;5043008;58;1135343;-88
2021/11/23 00:36:02;;;;;;;22.10;6.97;;;;;;;0.87;98.22;101536.83;5054698;58;1134894;-85
2021/11/23 00:41:08;;;;;;;14.18;4.60;;;;;;;0.87;98.00;101538.58;5059366;57;1136922;-85
2021/11/23 00:46:14;;;;;;;13.20;4.73;;;;;;;0.86;97.79;101532.51;5137447;57;1136957;-83
2021/11/23 00:51:20;;;;;;;12.57;5.00;;;;;;;0.83;97.53;101535.62;5134735;57;1136848;-84
2021/11/23 00:56:27;;;;;;;22.93;5.73;;;;;;;0.83;97.36;101547.33;5109600;57;1137006;-83
2021/11/23 01:01:33;;;;;;;22.80;6.60;;;;;;;0.80;96.97;101533.92;5144294;57;1136978;-82
2021/11/23 01:06:39;;;;;;;13.83;4.37;;;;;;;0.78;96.82;101539.61;5179123;57;1136978;-83
2021/11/23 01:11:45;;;;;;;8.30;3.58;;;;;;;0.75;96.63;101541.44;5106542;58;1136961;-83
2021/11/23 01:16:51;;;;;;;7.37;3.43;;;;;;;0.69;96.40;101529.40;5105911;57;1134911;-83
2021/11/23 01:21:57;;;;;;;6.77;2.73;;;;;;;0.70;96.36;101525.91;5107271;57;1134813;-83
2021/11/23 01:27:03;;;;;;;3.93;2.67;;;;;;;0.66;96.26;101511.23;5109750;57;1134810;-84
2021/11/23 01:32:09;;;;;;;6.83;2.50;;;;;;;0.65;96.18;101517.33;5109856;57;1134807;-84
2021/11/23 01:37:15;;;;;;;3.20;1.67;;;;;;;0.62;95.94;101513.03;5109641;57;1134806;-85
2021/11/23 01:42:20;;;;;;;5.57;2.27;;;;;;;0.59;96.04;101514.42;5109774;57;1134826;-86
2021/11/23 01:47:26;;;;;;;8.23;2.67;;;;;;;0.63;96.11;101512.59;5109808;57;1134787;-85
2021/11/23 01:52:32;;;;;;;4.70;2.10;;;;;;;0.67;96.29;101524.66;5109857;57;1134825;-85
2021/11/23 01:57:39;;;;;;;5.70;2.57;;;;;;;0.69;95.93;101508.58;5109954;57;1135161;-87
2021/11/23 02:02:46;;;;;;;7.17;4.00;;;;;;;0.66;96.06;101504.28;5120704;57;1134850;-86
2021/11/23 02:07:53;;;;;;;6.93;3.07;;;;;;;0.66;96.16;101520.34;5150798;57;1135044;-86
2021/11/23 02:13:00;;;;;;;14.23;4.67;;;;;;;0.65;96.27;101501.27;5153036;57;1134783;-86
2021/11/23 02:18:18;;;;;;;8.40;3.33;;;;;;;0.65;96.33;101488.69;5150379;56;1137117;-86
2021/11/23 02:23:26;;;;;;;8.47;3.77;;;;;;;0.64;96.29;101485.67;5184838;56;1134398;-86
2021/11/23 02:28:32;;;;;;;6.13;3.20;;;;;;;0.65;96.41;101483.05;5174837;56;1134815;-87
2021/11/23 02:33:39;;;;;;;5.20;2.63;;;;;;;0.69;96.48;101469.52;5158774;56;1134830;-88
2021/11/23 02:38:46;;;;;;;7.27;2.30;;;;;;;0.67;96.56;101459.58;5176830;56;1134732;-86
2021/11/23 02:43:52;;;;;;;5.37;3.20;;;;;;;0.68;96.77;101446.98;5162762;56;1135033;-85
2021/11/23 02:48:58;;;;;;;8.00;3.17;;;;;;;0.73;96.95;101442.53;5176085;56;1134903;-86
2021/11/23 02:54:05;;;;;;;5.57;2.70;;;;;;;0.75;97.05;101438.60;5145545;56;1134865;-87
2021/11/23 02:59:11;;;;;;;5.80;1.93;;;;;;;0.79;97.51;101435.87;5134840;57;1134912;-86
2021/11/23 03:04:18;;;;;;;10.13;1.77;;;;;;;0.82;97.82;101434.95;5134673;57;1134798;-87
2021/11/23 03:09:24;;;;;;;2.53;1.50;;;;;;;0.90;98.41;101426.53;5134724;57;1137018;-86
2021/11/23 03:14:30;;;;;;;2.73;1.73;;;;;;;0.90;98.41;101426.53;5134736;57;1134812;-88
2021/11/23 03:19:36;;;;;;;1.80;1.33;;;;;;;0.92;98.50;101416.46;5134522;57;1134890;-89
2021/11/23 03:24:43;;;;;;;7.10;3.63;;;;;;;0.98;98.75;101404.61;5217842;56;1132807;-86
2021/11/23 03:29:49;;;;;;;5.77;2.20;;;;;;;1.05;98.79;101397.52;5220766;56;1132731;-89
2021/11/23 03:34:55;;;;;;;7.47;2.70;;;;;;;1.12;98.89;101404.72;5221212;56;1132851;-86
2021/11/23 03:40:01;;;;;;;3.10;2.00;;;;;;;1.15;98.85;101382.06;5220594;56;1132665;-89
2021/11/23 03:45:08;;;;;;;4.83;2.23;;;;;;;1.17;98.69;101369.00;5221418;56;1132968;-88
2021/11/23 03:50:16;;;;;;;13.10;9.33;;;;;;;1.22;98.87;101371.05;5221281;56;1132707;-86
2021/11/23 03:55:23;;;;;;;9.00;5.50;;;;;;;1.25;99.06;101371.80;5221159;56;1135058;-86
2021/11/23 04:00:30;;;;;;;5.63;2.63;;;;;;;1.33;99.22;101372.92;5221254;56;1132751;-86
2021/11/23 04:05:36;;;;;;;5.80;3.17;;;;;;;1.37;99.38;101361.09;5220874;56;1132909;-87
2021/11/23 04:10:42;;;;;;;5.57;2.97;;;;;;;1.42;99.17;101351.82;5221229;56;1132619;-89
2021/11/23 04:15:49;;;;;;;13.30;4.63;;;;;;;1.44;99.48;101335.70;5221178;56;1132717;-87
2021/11/23 04:20:55;;;;;;;19.27;5.97;;;;;;;1.43;99.41;101340.50;5187896;56;1134804;-89
2021/11/23 04:26:01;;;;;;;26.90;9.80;;;;;;;1.40;99.86;101341.87;5112054;57;1134841;-86
2021/11/23 04:31:07;;;;;;;9.53;3.60;;;;;;;1.38;100.00;101344.52;5111911;57;1134889;-87
2021/11/23 04:36:13;;;;;;;11.03;3.43;;;;;;;1.36;100.00;101346.79;5112019;57;1134831;-85
2021/11/23 04:41:19;;;;;;;15.83;5.35;;;;;;;1.38;100.00;101351.48;5112134;57;1137223;-86
2021/11/23 04:46:25;;;;;;;8.17;3.80;;;;;;;1.38;100.00;101365.37;5111978;57;1136836;-90
2021/11/23 04:51:31;;;;;;;13.53;5.03;;;;;;;1.40;100.00;101366.19;5112106;57;1132784;-84
2021/11/23 04:56:37;;;;;;;8.33;3.97;;;;;;;1.45;100.00;101358.70;5112001;57;1135431;-88
2021/11/23 05:01:44;;;;;;;12.28;4.05;;;;;;;1.47;100.00;101347.34;5122577;57;1136977;-86
2021/11/23 05:06:49;;;;;;;13.67;5.03;;;;;;;1.49;100.00;101340.80;5050958;58;1139005;-86
2021/11/23 05:11:56;;;;;;;20.17;7.00;;;;;;;1.58;100.00;101337.92;5111705;57;1138947;-86
2021/11/23 05:17:02;;;;;;;14.50;6.07;;;;;;;1.58;100.00;101340.53;5111730;57;1138922;-85
2021/11/23 05:22:08;;;;;;;13.40;4.03;;;;;;;1.57;100.00;101321.42;5142161;57;1139066;-84
2021/11/23 05:27:17;;;;;;;19.70;5.90;;;;;;;1.57;100.00;101324.48;5147715;57;1139474;-85
2021/11/23 05:32:24;;;;;;;18.60;7.10;;;;;;;1.55;100.00;101307.58;5195795;57;1138977;-83
2021/11/23 05:37:30;;;;;;;28.43;8.03;;;;;;;1.52;100.00;101314.20;5195707;57;1138926;-83
2021/11/23 05:42:36;;;;;;;24.17;4.70;;;;;;;1.50;100.00;101314.69;5195796;57;1138998;-83
2021/11/23 05:47:42;;;;;;;43.20;11.87;;;;;;;1.46;100.00;101327.39;5183728;57;1139000;-84
2021/11/23 05:52:48;;;;;;;26.37;7.60;;;;;;;1.43;100.00;101328.77;5136806;57;1141064;-85
2021/11/23 05:57:54;;;;;;;18.30;5.03;;;;;;;1.38;100.00;101331.94;5110634;58;1138956;-85
2021/11/23 06:03:00;;;;;;;24.60;10.70;;;;;;;1.36;100.00;101333.31;5110755;58;1138998;-85
2021/11/23 06:08:06;;;;;;;35.73;11.30;;;;;;;1.38;100.00;101339.31;5110600;58;1141308;-84
2021/11/23 06:13:12;;;;;;;26.07;8.10;;;;;;;1.36;100.00;101334.61;5110610;58;1141078;-85
2021/11/23 06:18:18;;;;;;;9.27;3.37;;;;;;;1.38;100.00;101326.72;5110562;58;1138988;-84
2021/11/23 06:23:25;;;;;;;7.63;3.93;;;;;;;1.39;100.00;101326.69;5188577;56;1137009;-84
2021/11/23 06:28:31;;;;;;;17.60;6.33;;;;;;;1.40;100.00;101328.84;5219664;56;1136993;-84
2021/11/23 06:33:37;;;;;;;16.00;5.10;;;;;;;1.42;100.00;101324.45;5219352;56;1139294;-85
2021/11/23 06:38:43;;;;;;;11.10;4.93;;;;;;;1.43;100.00;101332.68;5219593;56;1138983;-85
2021/11/23 06:43:49;;;;;;;25.50;6.47;;;;;;;1.46;100.00;101343.03;5219604;56;1139017;-84
2021/11/23 06:48:54;;;;;;;6.00;3.73;;;;;;;1.49;100.00;101349.92;5219636;56;1139005;-84
2021/11/23 06:54:00;;;;;;;17.93;6.97;;;;;;;1.52;100.00;101340.27;5219628;56;1137195;-84
2021/11/23 06:59:06;;;;;;;9.97;4.43;;;;;;;1.55;100.00;101344.52;5219557;56;1139187;-83
2021/11/23 07:04:12;;;;;;;7.83;3.67;;;;;;;1.57;100.00;101348.80;5219463;56;1136955;-85
2021/11/23 07:09:18;;;;;;;11.23;4.93;;;;;;;1.59;100.00;101350.92;5219522;56;1136945;-83
2021/11/23 07:14:23;;;;;;;6.30;5.17;;;;;;;1.62;100.00;101357.36;5219497;56;1139004;-84
2021/11/23 07:19:29;;;;;;;5.57;2.57;;;;;;;1.67;100.00;101364.63;5219467;56;1136922;-84
2021/11/23 07:24:35;;;;;;;10.57;5.50;;;;;;;1.73;100.00;101372.25;5215098;56;1136801;-85
2021/11/23 07:29:41;;;;;;;7.93;5.53;;;;;;;1.78;100.00;101374.74;5214781;56;1139035;-84
2021/11/23 07:34:48;;;;;;;13.93;6.43;;;;;;;1.82;100.00;101362.48;5214806;56;1137098;-83
2021/11/23 07:39:54;;;;;;;6.97;4.07;;;;;;;1.86;100.00;101374.52;5186930;56;1139019;-86
2021/11/23 07:45:00;;;;;;;11.63;5.33;;;;;;;1.85;100.00;101382.78;5133589;57;1136923;-84
2021/11/23 07:50:07;;;;;;;27.00;15.60;;;;;;;1.87;100.00;101377.53;5133657;57;1139062;-83
2021/11/23 07:55:13;;;;;;;12.50;6.27;;;;;;;1.89;100.00;101368.77;5133366;57;1141050;-85
2021/11/23 08:00:22;;;;;;;15.95;6.78;;;;;;;1.90;100.00;101365.71;5133367;57;1139055;-84
2021/11/23 08:05:26;;;;;;;15.70;5.77;;;;;;;1.92;100.00;101373.05;5165287;56;1139017;-84
2021/11/23 08:10:32;;;;;;;9.77;5.27;;;;;;;1.99;100.00;101364.99;5219615;56;1139053;-84
2021/11/23 08:15:39;;;;;;;12.03;5.60;;;;;;;2.03;100.00;101366.63;5219466;56;1136764;-85
2021/11/23 08:20:47;;;;;;;7.50;5.07;;;;;;;2.11;100.00;101369.02;5204901;56;1136973;-85
2021/11/23 08:25:54;;;;;;;10.97;5.50;;;;;;;2.18;100.00;101384.89;5134242;56;1134806;-84
2021/11/23 08:31:00;;;;;;;11.67;7.10;;;;;;;2.29;100.00;101391.12;5134291;56;1137000;-84
2021/11/23 08:36:06;;;;;;;17.65;6.90;;;;;;;2.39;100.00;101392.09;5134107;56;1136972;-84
2021/11/23 08:41:13;;;;;;;10.63;6.77;;;;;;;2.48;100.00;101410.53;5134105;56;1137097;-84
2021/11/23 08:46:20;;;;;;;9.70;6.73;;;;;;;2.57;100.00;101425.09;5134403;56;1136949;-84
2021/11/23 08:51:29;;;;;;;13.07;7.23;;;;;;;2.64;100.00;101409.63;5134031;56;1135017;-84
2021/11/23 08:56:43;;;;;;;15.40;6.33;;;;;;;2.69;100.00;101434.70;5176539;56;1136991;-83
2021/11/23 09:01:44;;;;;;;13.70;7.28;;;;;;;2.74;100.00;101439.80;5079557;57;1137070;-84
2021/11/23 09:06:50;;;;;;;18.40;8.73;;;;;;;2.78;100.00;101442.25;5022594;57;1136928;-84
2021/11/23 09:12:01;;;;;;;16.37;8.93;;;;;;;2.82;100.00;101432.56;5210615;56;1136778;-84
2021/11/23 09:17:07;;;;;;;16.30;8.93;;;;;;;2.87;100.00;101428.06;5150377;56;1136912;-85
2021/11/23 09:22:12;;;;;;;21.13;11.27;;;;;;;2.92;100.00;101438.34;5103258;56;1137001;-83
2021/11/23 09:27:18;;;;;;;11.93;7.17;;;;;;;2.96;100.00;101430.83;5027438;58;1138977;-84
2021/11/23 09:32:24;;;;;;;14.40;7.07;;;;;;;2.99;100.00;101430.73;5027609;58;1136946;-84
2021/11/23 09:37:30;;;;;;;20.87;10.43;;;;;;;3.03;100.00;101440.20;5027555;58;1135062;-85
2021/11/23 09:42:35;;;;;;;15.50;8.23;;;;;;;3.07;100.00;101436.56;5027564;58;1136878;-84
2021/11/23 09:47:41;;;;;;;16.53;9.07;;;;;;;3.14;100.00;101438.94;5046503;59;21169;-83
2021/11/23 09:52:48;;;;;;;18.33;9.47;;;;;;;3.21;100.00;101437.45;5027835;58;1134881;-85
2021/11/23 09:57:54;;;;;;;17.30;10.43;;;;;;;3.26;100.00;101438.13;5092140;57;1138960;-86
2021/11/23 10:03:11;;;;;;;15.87;6.93;;;;;;;3.31;100.00;101441.02;5110088;57;1141024;-84
2021/11/23 10:08:20;;;;;;;14.47;7.27;;;;;;;3.39;100.00;101432.45;5109698;57;1138974;-83
2021/11/23 10:13:48;;;;;;;16.87;9.18;;;;;;;3.45;100.00;101428.33;5109478;57;1139288;-86
2021/11/23 10:18:54;;;;;;;15.47;8.70;;;;;;;3.51;100.00;101432.03;5109229;57;1139209;-85
2021/11/23 10:24:00;;;;;;;16.47;8.27;;;;;;;3.57;100.00;101432.28;5078038;57;1139093;-85
2021/11/23 10:29:08;;;;;;;14.23;8.50;;;;;;;3.65;100.00;101446.42;5142812;57;1138986;-84
2021/11/23 10:34:17;;;;;;;15.33;8.37;;;;;;;3.70;100.00;101436.64;5142621;57;1139042;-85
2021/11/23 10:39:28;;;;;;;16.83;8.43;;;;;;;3.73;100.00;101436.08;5142598;57;1138987;-86
2021/11/23 10:44:36;;;;;;;17.13;8.37;;;;;;;3.78;100.00;101432.87;5142532;57;1138952;-84
2021/11/23 10:49:46;;;;;;;20.43;7.57;;;;;;;3.82;100.00;101428.36;5142341;57;1139050;-85
2021/11/23 10:54:52;;;;;;;13.00;6.30;;;;;;;3.88;100.00;101425.53;5142572;57;1139343;-84
2021/11/23 10:59:57;;;;;;;12.33;7.50;;;;;;;3.94;100.00;101426.64;5142451;57;1139227;-85
2021/11/23 11:05:04;;;;;;;11.73;6.90;;;;;;;4.00;100.00;101429.47;5142613;57;1138983;-85
2021/11/23 11:10:11;;;;;;;19.67;9.90;;;;;;;4.04;100.00;101424.08;5130249;56;1139021;-84
2021/11/23 11:15:22;;;;;;;10.30;6.67;;;;;;;4.10;100.00;101419.09;5059467;57;1139219;-85
2021/11/23 11:20:41;;;;;;;10.57;6.60;;;;;;;4.15;100.00;101418.44;5028999;57;1139068;-78
2021/11/23 11:26:10;;;;;;;8.77;6.07;;;;;;;4.23;100.00;101413.80;5117838;57;1139140;-86
2021/11/23 11:31:32;;;;;;;8.55;6.42;;;;;;;4.27;100.00;101419.78;5098134;57;1136915;-86
2021/11/23 11:36:43;;;;;;;11.50;6.70;;;;;;;4.32;100.00;101422.61;5099122;58;1134866;-86
2021/11/23 11:41:48;;;;;;;12.13;5.90;;;;;;;4.37;100.00;101423.75;5098930;58;1137010;-88
2021/11/23 11:47:10;;;;;;;11.17;6.33;;;;;;;4.42;100.00;101431.84;5099048;58;1136967;-86
2021/11/23 11:52:11;;;;;;;29.43;16.17;;;;;;;4.49;100.00;101428.52;5168693;57;1136964;-85
2021/11/23 11:57:32;;;;;;;16.73;10.73;;;;;;;4.53;100.00;101437.53;5184829;57;1138946;-84
2021/11/23 12:02:38;;;;;;;48.93;33.07;;;;;;;4.58;100.00;101436.87;5183755;57;1141092;-84
2021/11/23 12:07:47;;;;;;;230.27;108.13;;;;;;;4.65;100.00;101451.06;5185744;56;1141068;-87
2021/11/23 12:13:26;;;;;;;201.57;115.93;;;;;;;4.72;100.00;101449.93;5185889;57;1145276;-86
2021/11/23 12:18:56;;;;;;;274.20;171.53;;;;;;;4.77;100.00;101450.13;5186230;57;1147651;-85
2021/11/23 12:24:04;;;;;;;69.60;47.60;;;;;;;4.83;100.00;101452.98;5186242;57;1147356;-86
2021/11/23 12:29:13;;;;;;;23.10;14.70;;;;;;;4.88;100.00;101458.91;5206743;56;1143167;-86
2021/11/23 12:34:20;;;;;;;75.90;52.43;;;;;;;4.93;100.00;101453.01;5209280;56;1143261;-86
2021/11/23 12:39:37;;;;;;;14.50;9.77;;;;;;;4.97;100.00;101454.60;5192307;56;1142995;-86
2021/11/23 12:44:43;;;;;;;260.00;92.83;;;;;;;4.99;100.00;101461.95;5132790;56;1141076;-85
2021/11/23 12:50:01;;;;;;;94.03;37.40;;;;;;;5.01;100.00;101456.20;5133016;57;1145287;-78
2021/11/23 12:55:07;;;;;;;247.40;97.40;;;;;;;5.05;100.00;101455.59;5039501;58;1143250;-78
2021/11/23 13:00:14;;;;;;;138.07;59.70;;;;;;;5.05;100.00;101459.07;5128908;57;1145528;-82
2021/11/23 13:05:27;;;;;;;101.73;47.50;;;;;;;5.10;100.00;101468.92;5089984;57;1145285;-84
2021/11/23 13:10:49;;;;;;;27.00;16.53;;;;;;;5.13;100.00;101473.20;5079759;56;1145253;-85
2021/11/23 13:15:56;;;;;;;17.93;10.20;;;;;;;5.16;100.00;101470.01;5132664;57;1143258;-86
2021/11/23 13:21:06;;;;;;;8.97;6.20;;;;;;;5.19;100.00;101476.91;5128327;57;1143220;-83
2021/11/23 13:26:21;;;;;;;13.83;7.73;;;;;;;5.20;100.00;101465.02;5076058;56;1139085;-88
2021/11/23 13:31:28;;;;;;;10.63;6.50;;;;;;;5.21;100.00;101475.05;5028043;58;1141077;-85
2021/11/23 13:36:42;;;;;;;11.50;6.57;;;;;;;5.21;100.00;101465.41;5032103;58;1141097;-88
2021/11/23 13:41:52;;;;;;;12.05;7.78;;;;;;;5.22;100.00;101467.58;4998750;58;1141162;-83
2021/11/23 13:47:06;;;;;;;10.40;6.70;;;;;;;5.23;100.00;101473.22;4982750;58;1138982;-85
2021/11/23 13:52:20;;;;;;;10.70;7.23;;;;;;;5.25;100.00;101475.33;5022061;58;1139059;-83
2021/11/23 13:57:29;;;;;;;214.45;121.10;;;;;;;5.26;100.00;101480.52;4983787;59;1139117;-82
2021/11/23 14:03:08;;;;;;;187.22;73.65;;;;;;;5.29;100.00;101487.41;4930901;59;1145736;-83
2021/11/23 14:08:31;;;;;;;271.73;99.73;;;;;;;5.32;100.00;101477.27;4997126;58;1143203;-82
2021/11/23 14:13:39;;;;;;;243.70;86.20;;;;;;;5.32;100.00;101477.27;4991952;58;1145722;-85
2021/11/23 14:18:48;;;;;;;77.37;28.87;;;;;;;5.33;100.00;101485.07;5186847;56;1145429;-85
2021/11/23 14:23:55;;;;;;;268.03;85.67;;;;;;;5.34;100.00;101484.61;5218360;56;1143170;-84
2021/11/23 14:29:13;;;;;;;181.53;69.07;;;;;;;5.36;100.00;101485.38;5176242;56;1145424;-86
2021/11/23 14:34:24;;;;;;;102.40;47.97;;;;;;;5.37;100.00;101485.31;5164868;56;1145450;-89
2021/11/23 14:39:38;;;;;;;19.17;13.93;;;;;;;5.39;100.00;101491.81;5073210;57;1145245;-83
2021/11/23 14:44:51;;;;;;;9.23;5.67;;;;;;;5.41;100.00;101496.09;5076275;56;1142976;-86
2021/11/23 14:49:57;;;;;;;11.60;6.17;;;;;;;5.42;100.00;101505.67;5085267;56;1138936;-83
2021/11/23 14:55:04;;;;;;;13.00;8.63;;;;;;;5.47;100.00;101495.00;5086896;56;1141058;-87
2021/11/23 15:00:14;;;;;;;11.17;6.83;;;;;;;5.48;100.00;101498.88;5091353;57;1141071;-86
2021/11/23 15:05:19;;;;;;;13.90;7.80;;;;;;;5.49;100.00;101497.11;5132006;57;1141306;-84
2021/11/23 15:10:28;;;;;;;24.60;17.83;;;;;;;5.50;100.00;101489.14;5084428;58;1141061;-86
2021/11/23 15:15:37;;;;;;;14.57;9.87;;;;;;;5.51;100.00;101500.03;5086786;58;1143177;-87
2021/11/23 15:20:43;;;;;;;41.50;25.50;;;;;;;5.51;100.00;101501.80;5088209;57;1141073;-84
2021/11/23 15:25:49;;;;;;;126.67;70.53;;;;;;;5.52;100.00;101498.27;5132283;56;1143270;-87
2021/11/23 15:30:55;;;;;;;72.80;47.43;;;;;;;5.52;100.00;101500.89;5132851;56;1145386;-88
2021/11/23 15:36:01;;;;;;;56.20;36.57;;;;;;;5.53;100.00;101504.77;5104391;56;1143178;-86
2021/11/23 15:41:07;;;;;;;28.50;15.67;;;;;;;5.53;100.00;101513.09;5146653;56;1143242;-77
2021/11/23 15:46:13;;;;;;;22.97;14.63;;;;;;;5.53;100.00;101513.95;5083070;57;1143332;-78
2021/11/23 15:51:19;;;;;;;37.53;16.20;;;;;;;5.51;100.00;101515.78;5072852;57;1143366;-82
2021/11/23 15:56:24;;;;;;;17.47;9.60;;;;;;;5.52;100.00;101512.23;5105197;57;1143782;-78
2021/11/23 16:01:30;;;;;;;21.00;9.50;;;;;;;5.56;100.00;101516.45;5137728;57;1141041;-81
2021/11/23 16:06:43;;;;;;;14.80;8.83;;;;;;;5.55;100.00;101513.43;5100479;57;1141304;-77
2021/11/23 16:11:44;;;;;;;24.40;11.05;;;;;;;5.53;100.00;101517.03;5106870;57;1141114;-78
2021/11/23 16:16:50;;;;;;;19.77;7.53;;;;;;;5.53;100.00;101527.52;5140795;57;1143204;-79
2021/11/23 16:21:56;;;;;;;16.80;8.30;;;;;;;5.54;100.00;101527.47;5126444;57;1141115;-81
2021/11/23 16:27:02;;;;;;;22.03;9.60;;;;;;;5.53;100.00;101516.57;5108357;57;1141449;-82
2021/11/23 16:32:09;;;;;;;23.60;9.55;;;;;;;5.54;100.00;101531.41;5154724;57;1141113;-78
2021/11/23 16:37:16;;;;;;;36.53;14.30;;;;;;;5.55;100.00;101530.95;5148612;57;1141022;-85
2021/11/23 16:42:21;;;;;;;15.80;8.43;;;;;;;5.54;100.00;101534.03;5156440;57;1143165;-84
2021/11/23 16:47:28;;;;;;;50.70;18.70;;;;;;;5.56;100.00;101532.20;5134788;57;1139046;-80
2021/11/23 16:52:33;;;;;;;25.10;10.90;;;;;;;5.56;100.00;101531.34;5110976;58;1141066;-81
2021/11/23 16:57:40;;;;;;;37.33;15.47;;;;;;;5.57;100.00;101533.05;5110797;58;1141069;-85
2021/11/23 17:02:47;;;;;;;41.45;15.93;;;;;;;5.58;100.00;101542.18;5138124;57;1141142;-88
2021/11/23 17:07:52;;;;;;;30.77;12.67;;;;;;;5.58;100.00;101540.02;5184048;57;1141130;-88
2021/11/23 17:12:58;;;;;;;17.47;9.73;;;;;;;5.57;100.00;101544.86;5111995;58;1140489;-82
2021/11/23 17:18:04;;;;;;;25.90;12.27;;;;;;;5.58;100.00;101547.43;4958574;58;1139086;-79
2021/11/23 17:23:13;;;;;;;15.73;10.83;;;;;;;5.57;100.00;101536.99;5158252;57;1141133;-80
2021/11/23 17:28:20;;;;;;;18.33;10.83;;;;;;;5.56;100.00;101531.34;4899493;58;1140806;-74
2021/11/23 17:33:25;;;;;;;17.87;9.87;;;;;;;5.57;100.00;101531.74;4988883;57;1141181;-81
2021/11/23 17:38:31;;;;;;;23.03;14.23;;;;;;;5.54;100.00;101526.61;4997403;58;1139141;-79
2021/11/23 17:43:37;;;;;;;24.37;13.87;;;;;;;5.52;100.00;101532.37;4947920;58;1141174;-85
2021/11/23 17:48:43;;;;;;;27.20;16.90;;;;;;;5.52;100.00;101535.00;4877169;59;1141123;-81
2021/11/23 17:53:49;;;;;;;38.30;20.60;;;;;;;5.53;100.00;101540.64;4881535;59;1141132;-82
2021/11/23 17:58:56;;;;;;;29.77;16.07;;;;;;;5.53;100.00;101538.02;4949541;58;1141483;-85
2021/11/23 18:04:04;;;;;;;33.67;17.10;;;;;;;5.52;100.00;101533.69;4870711;60;1141121;-83
2021/11/23 18:09:11;;;;;;;26.03;15.30;;;;;;;5.51;100.00;101531.98;4982419;59;1141379;-78
2021/11/23 18:14:18;;;;;;;32.47;14.50;;;;;;;5.50;100.00;101537.68;4943182;58;1139180;-80
2021/11/23 18:19:24;;;;;;;27.43;17.10;;;;;;;5.49;100.00;101531.22;4967382;58;21169;-82
2021/11/23 18:24:30;;;;;;;21.30;15.07;;;;;;;5.50;100.00;101533.75;4947510;58;1139039;-80
2021/11/23 18:29:37;;;;;;;22.07;14.60;;;;;;;5.50;100.00;101526.36;4936380;58;1143211;-87
2021/11/23 18:34:48;;;;;;;22.30;12.97;;;;;;;5.53;100.00;101526.22;4926568;59;1143218;-78
2021/11/23 18:39:52;;;;;;;31.10;19.07;;;;;;;5.55;100.00;101528.32;4861048;59;1143455;-80
2021/11/23 18:44:59;;;;;;;30.30;14.43;;;;;;;5.55;100.00;101525.23;4876764;59;1143129;-78
2021/11/23 18:50:08;;;;;;;59.10;21.23;;;;;;;5.56;100.00;101525.64;5027770;58;1143253;-86
2021/11/23 18:55:16;;;;;;;22.87;12.00;;;;;;;5.57;100.00;101525.19;4992547;58;1143171;-78
2021/11/23 19:00:29;;;;;;;50.20;20.00;;;;;;;5.57;100.00;101519.94;4994012;58;1143183;-82
2021/11/23 19:05:36;;;;;;;82.00;27.02;;;;;;;5.61;100.00;101521.06;4979673;58;1143313;-81
2021/11/23 19:10:42;;;;;;;34.47;13.83;;;;;;;5.62;100.00;101522.78;4914854;59;1143760;-79
2021/11/23 19:15:49;;;;;;;33.80;13.07;;;;;;;5.60;100.00;101508.86;4988201;59;1143466;-80
2021/11/23 19:20:55;;;;;;;35.17;14.90;;;;;;;5.59;100.00;101511.55;4932307;57;1143284;-84
2021/11/23 19:26:01;;;;;;;59.03;19.93;;;;;;;5.60;100.00;101503.61;5007182;57;1143283;-79
2021/11/23 19:31:08;;;;;;;63.50;22.00;;;;;;;5.62;100.00;101506.17;4999877;57;1143197;-77
2021/11/23 19:36:14;;;;;;;32.43;14.27;;;;;;;5.60;100.00;101510.17;5065125;57;1143459;-83
2021/11/23 19:41:21;;;;;;;25.63;16.53;;;;;;;5.61;100.00;101506.63;5049734;57;1143499;-82
2021/11/23 19:46:28;;;;;;;13.40;10.40;;;;;;;5.62;100.00;101505.72;5051443;57;1143250;-84
2021/11/23 19:51:37;;;;;;;23.83;12.97;;;;;;;5.63;100.00;101513.13;5057520;58;1143216;-77
2021/11/23 19:56:43;;;;;;;10.27;7.20;;;;;;;5.64;100.00;101515.70;5066879;57;1143490;-82
2021/11/23 20:01:49;;;;;;;10.90;7.43;;;;;;;5.66;100.00;101528.73;5111813;57;1141087;-74
2021/11/23 20:06:54;;;;;;;10.30;6.73;;;;;;;5.68;100.00;101527.36;5155935;56;1141084;-88
2021/11/23 20:12:00;;;;;;;12.77;9.23;;;;;;;5.69;100.00;101529.92;5052647;57;1141601;-84
2021/11/23 20:17:06;;;;;;;8.40;6.85;;;;;;;5.70;100.00;101536.02;5130583;57;1141329;-85
2021/11/23 20:22:13;;;;;;;8.90;6.27;;;;;;;5.70;100.00;101538.65;5148438;56;1139105;-77
2021/11/23 20:27:21;;;;;;;11.73;8.13;;;;;;;5.69;100.00;101538.25;5073361;57;1139262;-88
2021/11/23 20:32:28;;;;;;;13.70;7.23;;;;;;;5.70;100.00;101537.34;5092486;57;1141069;-77
2021/11/23 20:37:33;;;;;;;12.40;8.83;;;;;;;5.69;100.00;101540.42;5107557;58;1141127;-76
2021/11/23 20:42:40;;;;;;;18.10;11.20;;;;;;;5.70;100.00;101542.59;5107210;58;1141138;-83
2021/11/23 20:47:48;;;;;;;18.17;9.57;;;;;;;5.69;100.00;101532.55;5127843;56;1143235;-74
2021/11/23 20:52:54;;;;;;;16.60;11.37;;;;;;;5.71;100.00;101529.41;5139027;57;1141062;-78
2021/11/23 20:58:01;;;;;;;32.23;15.53;;;;;;;5.72;100.00;101532.88;5050538;58;1143210;-83
2021/11/23 21:03:11;;;;;;;28.80;14.73;;;;;;;5.72;100.00;101526.32;5088848;58;1143183;-78
2021/11/23 21:08:17;;;;;;;23.93;12.73;;;;;;;5.71;100.00;101520.67;5036176;58;1143267;-79
2021/11/23 21:13:23;;;;;;;19.43;13.53;;;;;;;5.70;100.00;101514.57;5043588;58;1141046;-86
2021/11/23 21:18:28;;;;;;;26.50;14.87;;;;;;;5.72;100.00;101518.45;5051546;58;1141150;-72
2021/11/23 21:23:34;;;;;;;37.78;18.92;;;;;;;5.73;100.00;101517.53;5072008;57;1141572;-86
2021/11/23 21:28:40;;;;;;;18.17;12.83;;;;;;;5.75;100.00;101521.80;5051562;58;1141125;-80
2021/11/23 21:33:45;;;;;;;33.77;19.47;;;;;;;5.77;100.00;101523.06;5048767;58;1141190;-78
2021/11/23 21:38:51;;;;;;;39.17;20.70;;;;;;;5.76;100.00;101519.58;5123887;56;1141134;-81
2021/11/23 21:44:00;;;;;;;29.27;15.93;;;;;;;5.79;100.00;101514.20;5134440;56;1141271;-78
2021/11/23 21:49:04;;;;;;;30.57;16.10;;;;;;;5.81;100.00;101519.36;5115790;57;1141090;-80
2021/11/23 21:54:10;;;;;;;37.70;18.93;;;;;;;5.82;100.00;101512.73;5098893;57;1141113;-76
2021/11/23 21:59:16;;;;;;;27.30;13.35;;;;;;;5.82;100.00;101499.61;5105801;57;1141395;-85
2021/11/23 22:04:29;;;;;;;19.00;11.03;;;;;;;5.82;100.00;101504.01;5110984;57;1140957;-77
2021/11/23 22:09:35;;;;;;;44.70;17.50;;;;;;;5.83;100.00;101497.39;5175788;57;1141001;-86
2021/11/23 22:14:40;;;;;;;44.53;21.03;;;;;;;5.82;100.00;101504.86;5200456;56;1141122;-83
2021/11/23 22:19:46;;;;;;;21.63;12.90;;;;;;;5.80;100.00;101500.17;5194753;56;1141062;-86
2021/11/23 22:24:51;;;;;;;22.57;14.07;;;;;;;5.81;100.00;101509.72;5144539;56;1141302;-85
2021/11/23 22:29:57;;;;;;;25.17;13.83;;;;;;;5.82;100.00;101507.48;4899519;58;1141176;-73
2021/11/23 22:35:04;;;;;;;19.53;11.90;;;;;;;5.82;100.00;101510.58;5059745;58;1141263;-77
2021/11/23 22:40:10;;;;;;;17.33;10.83;;;;;;;5.84;100.00;101513.99;5001448;58;1138912;-80
2021/11/23 22:45:16;;;;;;;20.83;11.57;;;;;;;5.84;100.00;101513.53;5080564;57;1139006;-77
2021/11/23 22:50:23;;;;;;;16.27;11.03;;;;;;;5.83;100.00;101512.28;4999523;58;1143454;-77
2021/11/23 22:55:31;;;;;;;18.80;12.20;;;;;;;5.82;100.00;101507.95;4999864;58;1143140;-80
2021/11/23 23:00:53;;;;;;;28.27;12.93;;;;;;;5.81;100.00;101510.17;4996625;59;1143207;-80